createdAt,value
2022-12-05T00:01:27.554Z,111.13
2022-12-05T00:03:57.579Z,135.17
2022-12-05T00:06:26.556Z,123.77
2022-12-05T00:08:53.752Z,124.90
2022-12-05T00:11:24.982Z,138.77
2022-12-05T00:13:54.319Z,131.43
2022-12-05T00:16:25.072Z,158.37
2022-12-05T00:18:52.523Z,154.00
2022-12-05T00:21:26.452Z,117.10
2022-12-05T00:23:55.630Z,106.63
2022-12-05T00:26:22.827Z,110.43
2022-12-05T00:28:50.522Z,131.97
2022-12-05T00:31:21.254Z,117.17
2022-12-05T00:33:49.071Z,119.13
2022-12-05T00:36:26.077Z,100.93
2022-12-05T00:38:53.571Z,109.03
2022-12-05T00:41:24.434Z,109.37
2022-12-05T00:43:51.988Z,122.80
2022-12-05T00:46:23.698Z,103.63
2022-12-05T00:48:52.714Z,102.70
2022-12-05T00:51:32.661Z,110.50
2022-12-05T00:54:02.659Z,118.57
2022-12-05T00:56:31.591Z,94.67
2022-12-05T00:59:00.143Z,96.30
2022-12-05T01:01:37.419Z,101.50
2022-12-05T01:04:32.842Z,99.83
2022-12-05T01:06:59.778Z,108.63
2022-12-05T01:09:27.129Z,92.43
2022-12-05T01:11:54.299Z,109.63
2022-12-05T01:14:24.731Z,89.80
2022-12-05T01:16:55.082Z,103.10
2022-12-05T01:19:28.307Z,79.70
2022-12-05T01:21:55.971Z,105.37
2022-12-05T01:24:23.926Z,104.93
2022-12-05T01:26:51.166Z,104.00
2022-12-05T01:29:21.309Z,100.07
2022-12-05T01:31:48.526Z,99.53
2022-12-05T01:34:17.497Z,95.73
2022-12-05T01:36:45.083Z,93.13
2022-12-05T01:39:13.509Z,89.43
2022-12-05T01:41:48.594Z,102.80
2022-12-05T01:44:15.334Z,105.30
2022-12-05T01:46:51.561Z,96.23
2022-12-05T01:49:28.445Z,94.73
2022-12-05T01:52:20.426Z,94.90
2022-12-05T01:54:51.340Z,123.50
2022-12-05T01:57:18.434Z,108.57
2022-12-05T01:59:50.788Z,115.20
2022-12-05T02:02:18.531Z,95.10
2022-12-05T02:05:08.936Z,110.70
2022-12-05T02:07:39.725Z,134.83
2022-12-05T02:10:07.768Z,116.77
2022-12-05T02:12:35.147Z,106.83
2022-12-05T02:15:19.147Z,96.90
2022-12-05T02:18:22.065Z,121.27
2022-12-05T02:21:33.517Z,141.53
2022-12-05T02:24:33.522Z,153.13
2022-12-05T02:27:25.421Z,151.23
2022-12-05T02:30:03.495Z,143.63
2022-12-05T02:33:00.335Z,145.43
2022-12-05T02:35:46.776Z,124.43
2022-12-05T02:38:37.242Z,110.40
2022-12-05T02:41:14.648Z,142.63
2022-12-05T02:44:33.990Z,137.37
2022-12-05T02:47:01.277Z,145.70
2022-12-05T02:49:33.256Z,153.33
2022-12-05T02:52:03.483Z,123.17
2022-12-05T02:54:38.855Z,130.97
2022-12-05T02:57:08.647Z,146.67
2022-12-05T02:59:35.800Z,132.70
2022-12-05T03:02:02.808Z,105.77
2022-12-05T03:04:31.931Z,131.97
2022-12-05T03:07:01.020Z,155.33
2022-12-05T03:09:37.819Z,164.30
2022-12-05T03:12:14.408Z,142.27
2022-12-05T03:14:50.710Z,135.27
2022-12-05T03:17:25.387Z,125.37
2022-12-05T03:20:05.828Z,127.37
2022-12-05T03:23:09.506Z,137.30
2022-12-05T03:25:57.147Z,128.73
2022-12-05T03:28:31.794Z,113.13
2022-12-05T03:31:08.735Z,122.30
2022-12-05T03:33:43.060Z,119.33
2022-12-05T03:36:18.699Z,120.47
2022-12-05T03:39:08.754Z,107.63
2022-12-05T03:41:47.409Z,125.70
2022-12-05T03:44:31.243Z,122.63
2022-12-05T03:47:28.975Z,107.53
2022-12-05T03:50:05.424Z,90.73
2022-12-05T03:52:57.185Z,90.90
2022-12-05T03:55:32.694Z,98.30
2022-12-05T03:58:07.327Z,87.27
2022-12-05T04:00:39.828Z,92.33
2022-12-05T04:03:17.765Z,90.67
2022-12-05T04:06:01.631Z,78.10
2022-12-05T04:08:42.713Z,70.40
2022-12-05T04:11:19.794Z,72.27
2022-12-05T04:13:57.836Z,74.50
2022-12-05T04:16:49.756Z,80.00
2022-12-05T04:20:05.715Z,78.60
2022-12-05T04:22:33.305Z,80.90
2022-12-05T04:25:22.877Z,66.50
2022-12-05T04:28:29.843Z,82.10
2022-12-05T04:31:16.816Z,74.20
2022-12-05T04:33:47.973Z,73.00
2022-12-05T04:36:36.694Z,84.03
2022-12-05T04:39:18.064Z,81.67
2022-12-05T04:41:57.956Z,80.27
2022-12-05T04:44:34.713Z,77.80
2022-12-05T04:47:05.527Z,82.97
2022-12-05T04:49:35.738Z,81.33
2022-12-05T04:52:08.705Z,84.57
2022-12-05T04:54:47.211Z,86.90
2022-12-05T04:57:26.799Z,78.97
2022-12-05T04:59:53.923Z,82.17
2022-12-05T05:02:31.020Z,64.40
2022-12-05T05:05:00.460Z,73.60
2022-12-05T05:07:27.360Z,83.27
2022-12-05T05:09:55.741Z,69.20
2022-12-05T05:12:22.824Z,75.40
2022-12-05T05:14:50.144Z,81.60
2022-12-05T05:17:17.043Z,73.47
2022-12-05T05:19:43.939Z,74.43
2022-12-05T05:22:10.837Z,70.87
2022-12-05T05:24:37.719Z,76.23
2022-12-05T05:27:04.626Z,69.20
2022-12-05T05:29:31.485Z,64.97
2022-12-05T05:31:58.477Z,66.73
2022-12-05T05:34:28.465Z,67.60
2022-12-05T05:36:55.392Z,66.30
2022-12-05T05:39:22.818Z,76.70
2022-12-05T05:41:49.691Z,71.10
2022-12-05T05:44:16.560Z,59.80
2022-12-05T05:46:43.510Z,66.43
2022-12-05T05:49:10.646Z,54.87
2022-12-05T05:51:37.608Z,54.53
2022-12-05T05:54:04.574Z,62.33
2022-12-05T05:56:31.507Z,58.50
2022-12-05T05:59:02.140Z,66.17
2022-12-05T06:01:29.745Z,62.13
2022-12-05T06:03:57.253Z,58.60
2022-12-05T06:06:25.065Z,57.60
2022-12-05T06:08:51.967Z,72.90
2022-12-05T06:11:26.760Z,61.53
2022-12-05T06:14:02.839Z,67.90
2022-12-05T06:16:31.596Z,74.80
2022-12-05T06:18:59.026Z,65.27
2022-12-05T06:21:26.167Z,73.77
2022-12-05T06:23:53.883Z,57.93
2022-12-05T06:26:21.898Z,62.03
2022-12-05T06:28:49.379Z,61.10
2022-12-05T06:31:28.368Z,71.73
2022-12-05T06:33:55.344Z,61.57
2022-12-05T06:36:22.897Z,54.70
2022-12-05T06:38:49.832Z,64.47
2022-12-05T06:41:19.733Z,56.00
2022-12-05T06:43:47.527Z,64.30
2022-12-05T06:46:16.234Z,68.30
2022-12-05T06:48:43.290Z,58.93
2022-12-05T06:51:12.559Z,65.63
2022-12-05T06:53:40.202Z,65.53
2022-12-05T06:56:12.516Z,61.17
2022-12-05T06:58:49.935Z,65.57
2022-12-05T07:01:42.272Z,71.90
2022-12-05T07:04:24.378Z,63.43
2022-12-05T07:06:55.493Z,66.60
2022-12-05T07:09:45.853Z,70.97
2022-12-05T07:12:15.244Z,86.73
2022-12-05T07:14:48.043Z,61.50
2022-12-05T07:17:17.290Z,68.30
2022-12-05T07:19:44.192Z,64.47
2022-12-05T07:22:15.697Z,67.50
2022-12-05T07:24:44.557Z,66.17
2022-12-05T07:27:12.908Z,65.33
2022-12-05T07:29:39.820Z,62.40
2022-12-05T07:32:07.173Z,52.70
2022-12-05T07:34:34.168Z,57.87
2022-12-05T07:37:01.493Z,56.60
2022-12-05T07:39:28.493Z,52.77
2022-12-05T07:41:55.373Z,55.40
2022-12-05T07:44:22.236Z,52.67
2022-12-05T07:46:49.163Z,51.77
2022-12-05T07:49:16.267Z,49.20
2022-12-05T07:51:43.151Z,44.83
2022-12-05T07:54:10.074Z,54.90
2022-12-05T07:56:36.930Z,45.07
2022-12-05T07:59:03.787Z,48.03
2022-12-05T08:01:30.968Z,47.93
2022-12-05T08:03:59.852Z,51.70
2022-12-05T08:06:30.120Z,52.17
2022-12-05T08:08:57.882Z,49.10
2022-12-05T08:11:30.152Z,40.67
2022-12-05T08:13:58.112Z,41.13
2022-12-05T08:16:29.104Z,48.63
2022-12-05T08:19:02.964Z,45.17
2022-12-05T08:21:30.825Z,51.77
2022-12-05T08:23:58.006Z,50.63
2022-12-05T08:26:31.298Z,43.33
2022-12-05T08:29:02.046Z,49.57
2022-12-05T08:31:31.404Z,39.37
2022-12-05T08:34:00.035Z,45.87
2022-12-05T08:36:29.540Z,41.67
2022-12-05T08:38:59.311Z,37.40
2022-12-05T08:41:28.727Z,36.37
2022-12-05T08:44:10.292Z,39.13
2022-12-05T08:46:39.229Z,41.47
2022-12-05T08:49:06.745Z,42.07
2022-12-05T08:51:33.613Z,33.17
2022-12-05T08:54:03.220Z,42.50
2022-12-05T08:56:30.111Z,38.37
2022-12-05T08:59:04.450Z,36.10
2022-12-05T09:01:33.648Z,37.13
2022-12-05T09:04:02.408Z,40.17
2022-12-05T09:06:29.896Z,44.43
2022-12-05T09:08:59.920Z,32.50
2022-12-05T09:11:30.130Z,33.50
2022-12-05T09:13:58.721Z,38.80
2022-12-05T09:16:37.488Z,32.03
2022-12-05T09:19:17.055Z,26.03
2022-12-05T09:21:44.504Z,30.20
2022-12-05T09:24:12.825Z,30.10
2022-12-05T09:26:40.564Z,33.30
2022-12-05T09:29:11.340Z,38.50
2022-12-05T09:31:45.724Z,27.93
2022-12-05T09:34:14.166Z,31.57
2022-12-05T09:36:41.753Z,22.87
2022-12-05T09:39:08.643Z,25.63
2022-12-05T09:42:07.939Z,26.77
2022-12-05T09:45:17.906Z,27.00
2022-12-05T09:47:59.270Z,28.63
2022-12-05T09:50:29.068Z,25.53
2022-12-05T09:53:25.175Z,25.67
2022-12-05T09:55:59.088Z,25.83
2022-12-05T09:58:43.466Z,30.50
2022-12-05T10:01:42.500Z,28.90
2022-12-05T10:05:00.429Z,25.00
2022-12-05T10:07:54.157Z,25.03
2022-12-05T10:11:05.496Z,27.73
2022-12-05T10:13:41.398Z,21.43
2022-12-05T10:16:28.755Z,23.43
2022-12-05T10:19:07.185Z,22.17
2022-12-05T10:21:46.904Z,22.90
2022-12-05T10:24:21.106Z,27.07
2022-12-05T10:27:00.778Z,26.00
2022-12-05T10:29:33.927Z,24.97
2022-12-05T10:32:19.786Z,24.93
2022-12-05T10:34:47.221Z,25.60
2022-12-05T10:37:20.895Z,22.37
2022-12-05T10:39:49.935Z,25.77
2022-12-05T10:42:30.449Z,21.80
2022-12-05T10:45:04.481Z,24.43
2022-12-05T10:47:32.312Z,24.43
2022-12-05T10:50:27.747Z,22.30
2022-12-05T10:52:57.812Z,26.97
2022-12-05T10:55:37.811Z,21.50
2022-12-05T10:58:24.108Z,20.50
2022-12-05T11:01:07.964Z,21.80
2022-12-05T11:03:38.637Z,23.10
2022-12-05T11:06:25.885Z,23.30
2022-12-05T11:09:05.635Z,26.00
2022-12-05T11:11:33.727Z,24.20
2022-12-05T11:14:05.392Z,21.77
2022-12-05T11:16:35.312Z,22.67
2022-12-05T11:19:21.806Z,28.40
2022-12-05T11:21:50.532Z,25.87
2022-12-05T11:24:28.985Z,38.73
2022-12-05T11:26:58.993Z,23.70
2022-12-05T11:29:39.339Z,22.43
2022-12-05T11:32:19.680Z,23.13
2022-12-05T11:34:53.830Z,23.03
2022-12-05T11:37:45.028Z,25.37
2022-12-05T11:40:38.443Z,23.60
2022-12-05T11:43:24.212Z,19.87
2022-12-05T11:46:23.613Z,23.70
2022-12-05T11:49:17.494Z,17.90
2022-12-05T11:52:25.065Z,18.73
2022-12-05T11:55:16.261Z,19.30
2022-12-05T11:58:05.032Z,19.50
2022-12-05T12:00:43.798Z,21.70
2022-12-05T12:03:45.461Z,17.30
2022-12-05T12:06:59.489Z,25.33
2022-12-05T12:09:49.795Z,19.20
2022-12-05T12:12:36.089Z,24.90
2022-12-05T12:15:43.319Z,26.10
2022-12-05T12:18:53.842Z,25.23
2022-12-05T12:21:59.322Z,22.93
2022-12-05T12:25:42.030Z,23.50
2022-12-05T12:28:45.686Z,21.63
2022-12-05T12:31:12.517Z,22.73
2022-12-05T12:34:04.247Z,20.00
2022-12-05T12:36:56.011Z,16.50
2022-12-05T12:39:51.683Z,19.93
2022-12-05T12:42:27.128Z,16.63
2022-12-05T12:45:21.531Z,19.17
2022-12-05T12:48:12.601Z,19.83
2022-12-05T12:50:44.954Z,19.57
2022-12-05T12:54:04.513Z,21.63
2022-12-05T12:57:32.149Z,20.07
2022-12-05T13:00:22.765Z,22.63
2022-12-05T13:03:00.506Z,24.80
2022-12-05T13:05:50.484Z,23.20
2022-12-05T13:08:41.136Z,21.43
2022-12-05T13:11:14.345Z,23.87
2022-12-05T13:13:48.733Z,23.37
2022-12-05T13:16:27.799Z,25.50
2022-12-05T13:18:56.473Z,18.83
2022-12-05T13:21:24.573Z,20.70
2022-12-05T13:23:55.915Z,20.73
2022-12-05T13:26:23.996Z,21.47
2022-12-05T13:29:01.065Z,24.13
2022-12-05T13:31:41.756Z,16.40
2022-12-05T13:34:27.192Z,17.40
2022-12-05T13:37:13.480Z,20.20
2022-12-05T13:39:59.405Z,17.20
2022-12-05T13:42:30.371Z,22.43
2022-12-05T13:45:04.626Z,17.33
2022-12-05T13:48:01.735Z,21.23
2022-12-05T13:50:56.943Z,18.90
2022-12-05T13:53:45.608Z,18.00
2022-12-05T13:56:15.394Z,20.00
2022-12-05T13:58:53.183Z,16.53
2022-12-05T14:01:26.195Z,19.20
2022-12-05T14:04:02.207Z,17.47
2022-12-05T14:06:40.620Z,17.30
2022-12-05T14:09:19.535Z,19.27
2022-12-05T14:12:11.192Z,15.70
2022-12-05T14:14:56.787Z,17.83
2022-12-05T14:17:26.333Z,16.27
2022-12-05T14:20:22.779Z,17.87
2022-12-05T14:23:16.581Z,14.27
2022-12-05T14:26:15.050Z,16.40
2022-12-05T14:28:55.136Z,18.50
2022-12-05T14:31:40.439Z,20.50
2022-12-05T14:34:17.964Z,25.07
2022-12-05T14:37:16.426Z,23.03
2022-12-05T14:39:52.066Z,17.53
2022-12-05T14:42:30.950Z,18.33
2022-12-05T14:45:01.126Z,19.10
2022-12-05T14:47:33.641Z,22.60
2022-12-05T14:50:34.948Z,20.67
2022-12-05T14:53:15.493Z,22.63
2022-12-05T14:55:47.846Z,21.10
2022-12-05T14:58:27.100Z,19.93
2022-12-05T15:01:01.140Z,22.30
2022-12-05T15:03:34.709Z,20.40
2022-12-05T15:06:06.009Z,23.53
2022-12-05T15:08:45.314Z,18.70
2022-12-05T15:11:29.531Z,25.93
2022-12-05T15:14:08.613Z,26.03
2022-12-05T15:16:44.014Z,23.50
2022-12-05T15:19:23.195Z,31.00
2022-12-05T15:21:57.042Z,27.00
2022-12-05T15:24:24.197Z,23.57
2022-12-05T15:26:55.203Z,24.23
2022-12-05T15:29:28.157Z,26.33
2022-12-05T15:31:59.555Z,22.80
2022-12-05T15:35:01.651Z,31.50
2022-12-05T15:37:35.200Z,27.83
2022-12-05T15:40:08.335Z,30.97
2022-12-05T15:42:45.965Z,27.60
2022-12-05T15:45:15.792Z,28.50
2022-12-05T15:48:12.075Z,25.37
2022-12-05T15:50:42.640Z,29.50
2022-12-05T15:53:36.093Z,26.30
2022-12-05T15:56:32.385Z,28.30
2022-12-05T15:59:47.240Z,24.93
2022-12-05T16:02:22.981Z,27.93
2022-12-05T16:04:56.944Z,31.40
2022-12-05T16:07:27.495Z,27.73
2022-12-05T16:09:58.249Z,34.87
2022-12-05T16:12:30.884Z,31.80
2022-12-05T16:15:03.961Z,31.67
2022-12-05T16:17:42.306Z,29.10
2022-12-05T16:20:36.661Z,27.97
2022-12-05T16:23:11.312Z,23.60
2022-12-05T16:25:38.250Z,26.90
2022-12-05T16:28:08.014Z,27.40
2022-12-05T16:30:37.312Z,25.90
2022-12-05T16:33:08.795Z,27.63
2022-12-05T16:35:47.477Z,28.67
2022-12-05T16:38:16.900Z,28.87
2022-12-05T16:40:46.798Z,28.40
2022-12-05T16:43:33.162Z,26.00
2022-12-05T16:46:13.861Z,25.13
2022-12-05T16:49:14.978Z,22.60
2022-12-05T16:51:45.289Z,23.57
2022-12-05T16:54:12.162Z,22.80
2022-12-05T16:56:39.659Z,27.40
2022-12-05T16:59:13.988Z,31.20
2022-12-05T17:01:40.917Z,22.90
2022-12-05T17:04:11.206Z,23.37
2022-12-05T17:06:39.285Z,32.27
2022-12-05T17:09:06.211Z,28.33
2022-12-05T17:11:37.116Z,31.30
2022-12-05T17:14:04.188Z,38.10
2022-12-05T17:16:31.242Z,24.43
2022-12-05T17:18:58.228Z,24.37
2022-12-05T17:21:29.998Z,23.40
2022-12-05T17:23:58.229Z,21.60
2022-12-05T17:26:25.215Z,23.00
2022-12-05T17:28:52.103Z,23.33
2022-12-05T17:31:22.478Z,19.10
2022-12-05T17:33:50.703Z,21.63
2022-12-05T17:36:20.549Z,22.37
2022-12-05T17:38:47.809Z,22.53
2022-12-05T17:41:23.783Z,21.67
2022-12-05T17:43:51.473Z,20.27
2022-12-05T17:46:21.968Z,22.53
2022-12-05T17:48:50.356Z,25.20
2022-12-05T17:51:17.595Z,20.67
2022-12-05T17:53:45.390Z,22.93
2022-12-05T17:56:12.923Z,23.80
2022-12-05T17:58:40.307Z,24.90
2022-12-05T18:01:08.032Z,24.93
2022-12-05T18:03:35.127Z,23.37
2022-12-05T18:06:05.101Z,23.50
2022-12-05T18:08:32.023Z,24.80
2022-12-05T18:10:58.895Z,22.60
2022-12-05T18:13:25.816Z,26.40
2022-12-05T18:15:58.096Z,27.03
2022-12-05T18:18:27.382Z,27.70
2022-12-05T18:21:11.942Z,26.70
2022-12-05T18:23:39.754Z,27.30
2022-12-05T18:26:09.251Z,29.43
2022-12-05T18:28:38.444Z,25.93
2022-12-05T18:31:16.882Z,28.20
2022-12-05T18:33:45.786Z,22.97
2022-12-05T18:36:21.039Z,23.93
2022-12-05T18:38:53.844Z,30.30
2022-12-05T18:41:23.384Z,33.97
2022-12-05T18:43:50.654Z,28.33
2022-12-05T18:46:17.669Z,28.60
2022-12-05T18:48:47.783Z,24.27
2022-12-05T18:51:21.905Z,20.43
2022-12-05T18:53:52.382Z,28.47
2022-12-05T18:56:29.505Z,27.53
2022-12-05T18:58:59.823Z,30.80
2022-12-05T19:01:27.913Z,28.37
2022-12-05T19:03:57.173Z,23.60
2022-12-05T19:06:28.041Z,28.63
2022-12-05T19:09:03.463Z,32.40
2022-12-05T19:11:30.438Z,29.30
2022-12-05T19:14:02.421Z,29.90
2022-12-05T19:16:31.675Z,27.93
2022-12-05T19:19:01.237Z,25.27
2022-12-05T19:21:31.608Z,29.10
2022-12-05T19:23:59.279Z,28.13
2022-12-05T19:26:26.561Z,24.93
2022-12-05T19:28:53.916Z,22.90
2022-12-05T19:31:24.673Z,26.47
2022-12-05T19:33:55.002Z,22.87
2022-12-05T19:36:28.750Z,28.90
2022-12-05T19:38:56.632Z,30.67
2022-12-05T19:41:27.685Z,26.10
2022-12-05T19:43:58.971Z,26.40
2022-12-05T19:46:29.700Z,28.30
2022-12-05T19:48:58.775Z,23.60
2022-12-05T19:51:27.331Z,24.80
2022-12-05T19:53:54.382Z,25.47
2022-12-05T19:56:24.227Z,26.10
2022-12-05T19:58:53.026Z,28.80
2022-12-05T20:01:27.923Z,22.83
2022-12-05T20:03:59.195Z,23.60
2022-12-05T20:06:29.966Z,26.20
2022-12-05T20:08:58.858Z,24.57
2022-12-05T20:11:26.649Z,23.50
2022-12-05T20:13:56.135Z,21.90
2022-12-05T20:16:26.693Z,20.37
2022-12-05T20:19:00.554Z,21.40
2022-12-05T20:21:30.912Z,23.87
2022-12-05T20:24:00.752Z,22.07
2022-12-05T20:26:31.448Z,19.80
2022-12-05T20:28:59.708Z,25.30
2022-12-05T20:31:35.931Z,23.43
2022-12-05T20:34:04.040Z,25.33
2022-12-05T20:36:33.266Z,27.40
2022-12-05T20:39:10.135Z,26.93
2022-12-05T20:41:37.044Z,22.80
2022-12-05T20:44:07.230Z,30.97
2022-12-05T20:46:35.316Z,26.83
2022-12-05T20:49:02.313Z,30.30
2022-12-05T20:51:32.901Z,33.00
2022-12-05T20:54:02.449Z,29.20
2022-12-05T20:56:34.292Z,29.73
2022-12-05T20:59:04.564Z,28.27
2022-12-05T21:01:34.670Z,31.60
2022-12-05T21:04:02.701Z,62.80
2022-12-05T21:06:32.779Z,54.70
2022-12-05T21:09:01.055Z,35.20
2022-12-05T21:11:29.206Z,30.63
2022-12-05T21:14:00.088Z,46.63
2022-12-05T21:16:28.069Z,55.47
2022-12-05T21:18:56.048Z,45.93
2022-12-05T21:21:26.071Z,64.83
2022-12-05T21:23:59.262Z,50.73
2022-12-05T21:26:29.866Z,38.43
2022-12-05T21:28:57.875Z,40.13
2022-12-05T21:31:33.572Z,38.10
2022-12-05T21:34:07.209Z,39.63
2022-12-05T21:36:36.113Z,35.03
2022-12-05T21:39:03.701Z,40.43
2022-12-05T21:41:30.582Z,35.73
2022-12-05T21:43:57.454Z,47.00
2022-12-05T21:46:25.654Z,38.97
2022-12-05T21:48:53.077Z,64.07
2022-12-05T21:51:20.691Z,48.67
2022-12-05T21:53:48.184Z,31.67
2022-12-05T21:56:18.322Z,32.17
2022-12-05T21:58:46.791Z,56.33
2022-12-05T22:01:19.785Z,42.70
2022-12-05T22:03:47.057Z,38.03
2022-12-05T22:06:15.337Z,48.60
2022-12-05T22:08:42.506Z,40.87
2022-12-05T22:11:14.858Z,40.70
2022-12-05T22:13:43.151Z,43.50
2022-12-05T22:16:10.575Z,49.80
2022-12-05T22:18:37.979Z,38.27
2022-12-05T22:21:18.247Z,49.33
2022-12-05T22:23:45.675Z,29.90
2022-12-05T22:26:19.582Z,35.83
2022-12-05T22:28:46.519Z,37.63
2022-12-05T22:31:15.792Z,35.90
2022-12-05T22:33:44.781Z,35.43
2022-12-05T22:36:14.966Z,33.07
2022-12-05T22:38:44.890Z,34.30
2022-12-05T22:41:17.522Z,27.33
2022-12-05T22:43:46.885Z,42.30
2022-12-05T22:46:20.165Z,33.97
2022-12-05T22:48:49.603Z,30.33
2022-12-05T22:51:18.768Z,26.17
2022-12-05T22:53:46.311Z,24.67
2022-12-05T22:56:16.332Z,22.27
2022-12-05T22:58:45.112Z,24.33
2022-12-05T23:01:21.547Z,26.87
2022-12-05T23:03:53.802Z,20.43
2022-12-05T23:06:20.734Z,26.93
2022-12-05T23:08:48.282Z,24.47
2022-12-05T23:11:16.729Z,29.03
2022-12-05T23:13:44.119Z,24.43
2022-12-05T23:16:23.433Z,31.73
2022-12-05T23:18:53.553Z,28.93
2022-12-05T23:21:29.642Z,26.23
2022-12-05T23:24:00.250Z,24.40
2022-12-05T23:26:32.710Z,26.23
2022-12-05T23:28:59.598Z,26.43
2022-12-05T23:31:26.526Z,24.83
2022-12-05T23:33:57.228Z,26.50
2022-12-05T23:36:28.295Z,21.17
2022-12-05T23:38:55.357Z,29.17
2022-12-05T23:41:24.108Z,24.27
2022-12-05T23:43:52.015Z,22.90
2022-12-05T23:46:22.669Z,20.70
2022-12-05T23:48:50.465Z,22.93
2022-12-05T23:51:29.470Z,26.27
2022-12-05T23:53:59.556Z,25.43
2022-12-05T23:56:30.386Z,25.93
2022-12-05T23:58:57.814Z,23.37
